createdAt,value
2018-10-21T00:02:06.723Z,26.60
2018-10-21T00:04:36.836Z,25.27
2018-10-21T00:07:06.942Z,27.23
2018-10-21T00:09:36.961Z,28.43
2018-10-21T00:12:06.961Z,27.70
2018-10-21T00:14:38.301Z,28.23
2018-10-21T00:17:08.443Z,27.57
2018-10-21T00:19:38.256Z,27.50
2018-10-21T00:22:08.146Z,29.60
2018-10-21T00:24:37.996Z,29.17
2018-10-21T00:27:07.989Z,26.60
2018-10-21T00:29:37.893Z,26.33
2018-10-21T00:32:07.955Z,25.53
2018-10-21T00:34:37.797Z,26.10
2018-10-21T00:37:07.779Z,27.37
2018-10-21T00:39:37.707Z,28.70
2018-10-21T00:42:07.637Z,28.07
2018-10-21T00:44:37.460Z,27.93
2018-10-21T00:47:07.377Z,28.90
2018-10-21T00:49:37.154Z,29.80
2018-10-21T00:52:07.520Z,30.87
2018-10-21T00:54:37.925Z,27.83
2018-10-21T00:57:08.282Z,28.87
2018-10-21T00:59:38.258Z,28.90
2018-10-21T01:02:08.316Z,31.30
2018-10-21T01:04:38.102Z,30.20
2018-10-21T01:07:07.972Z,27.83
2018-10-21T01:09:37.820Z,28.10
2018-10-21T01:12:07.682Z,31.63
2018-10-21T01:14:37.688Z,30.13
2018-10-21T01:17:07.710Z,30.20
2018-10-21T01:19:37.621Z,29.23
2018-10-21T01:22:07.544Z,30.90
2018-10-21T01:24:37.452Z,33.07
2018-10-21T01:27:07.791Z,31.67
2018-10-21T01:29:37.761Z,31.90
2018-10-21T01:32:07.685Z,33.80
2018-10-21T01:34:37.657Z,33.37
2018-10-21T01:37:07.665Z,34.47
2018-10-21T01:40:50.125Z,34.10
2018-10-21T01:43:35.207Z,36.50
2018-10-21T01:46:05.401Z,35.40
2018-10-21T01:48:35.238Z,37.83
2018-10-21T01:51:05.469Z,37.87
2018-10-21T01:53:35.289Z,36.47
2018-10-21T01:56:05.560Z,36.10
2018-10-21T01:58:35.470Z,40.27
2018-10-21T02:01:06.145Z,39.63
2018-10-21T02:03:35.968Z,41.03
2018-10-21T02:06:06.027Z,42.97
2018-10-21T02:08:36.023Z,41.77
2018-10-21T02:11:06.039Z,41.27
2018-10-21T02:13:36.007Z,41.00
2018-10-21T02:16:06.340Z,39.23
2018-10-21T02:18:36.241Z,37.80
2018-10-21T02:21:06.406Z,33.57
2018-10-21T02:23:36.434Z,41.27
2018-10-21T02:26:07.195Z,41.13
2018-10-21T02:28:37.268Z,42.23
2018-10-21T02:31:07.492Z,43.53
2018-10-21T02:33:37.714Z,43.83
2018-10-21T02:36:08.410Z,44.03
2018-10-21T02:38:38.604Z,39.80
2018-10-21T02:41:20.177Z,41.07
2018-10-21T02:43:50.289Z,46.07
2018-10-21T02:46:20.651Z,46.97
2018-10-21T02:48:51.893Z,48.13
2018-10-21T02:51:22.030Z,47.97
2018-10-21T02:53:52.149Z,48.53
2018-10-21T02:56:22.152Z,48.97
2018-10-21T02:58:52.295Z,46.00
2018-10-21T03:01:22.140Z,45.97
2018-10-21T03:03:52.109Z,45.07
2018-10-21T03:06:22.047Z,43.40
2018-10-21T03:08:52.252Z,45.30
2018-10-21T03:11:23.139Z,46.97
2018-10-21T03:13:53.204Z,45.97
2018-10-21T03:16:23.404Z,47.30
2018-10-21T03:18:54.579Z,46.77
2018-10-21T03:21:24.689Z,47.30
2018-10-21T03:23:54.605Z,48.07
2018-10-21T03:26:26.244Z,49.93
2018-10-21T03:28:57.045Z,51.13
2018-10-21T03:31:27.005Z,49.27
2018-10-21T03:33:57.006Z,49.27
2018-10-21T03:36:26.880Z,47.40
2018-10-21T03:38:56.753Z,48.60
2018-10-21T03:41:26.652Z,48.63
2018-10-21T03:43:56.492Z,46.33
2018-10-21T03:46:26.508Z,47.77
2018-10-21T03:48:56.499Z,48.23
2018-10-21T03:51:26.414Z,46.63
2018-10-21T03:53:56.373Z,47.87
2018-10-21T03:56:26.759Z,48.60
2018-10-21T03:58:56.621Z,47.50
2018-10-21T04:01:27.440Z,48.20
2018-10-21T04:04:02.113Z,47.70
2018-10-21T04:06:33.562Z,49.73
2018-10-21T04:09:03.962Z,48.60
2018-10-21T04:11:35.482Z,45.53
2018-10-21T04:14:05.808Z,46.50
2018-10-21T04:16:35.801Z,46.47
2018-10-21T04:19:06.477Z,46.97
2018-10-21T04:21:38.075Z,43.93
2018-10-21T04:24:08.036Z,45.27
2018-10-21T04:26:38.048Z,45.27
2018-10-21T04:29:08.070Z,46.43
2018-10-21T04:31:40.157Z,44.50
2018-10-21T04:34:10.093Z,44.20
2018-10-21T04:36:40.067Z,44.23
2018-10-21T04:39:25.189Z,43.30
2018-10-21T04:41:55.282Z,43.67
2018-10-21T04:44:25.431Z,44.17
2018-10-21T04:46:55.840Z,44.77
2018-10-21T04:49:25.602Z,45.60
2018-10-21T04:51:55.642Z,43.93
2018-10-21T04:54:28.372Z,43.03
2018-10-21T04:56:58.208Z,43.63
2018-10-21T04:59:28.086Z,42.20
2018-10-21T05:01:57.966Z,44.67
2018-10-21T05:04:27.799Z,43.00
2018-10-21T05:06:57.737Z,43.43
2018-10-21T05:09:27.641Z,43.30
2018-10-21T05:11:57.537Z,43.67
2018-10-21T05:14:27.336Z,42.00
2018-10-21T05:16:57.128Z,43.60
2018-10-21T05:19:26.980Z,45.20
2018-10-21T05:21:56.799Z,41.47
2018-10-21T05:24:26.637Z,43.20
2018-10-21T05:27:03.832Z,42.33
2018-10-21T05:29:34.698Z,41.57
2018-10-21T05:32:05.300Z,46.13
2018-10-21T05:34:35.201Z,47.47
2018-10-21T05:37:08.111Z,46.30
2018-10-21T05:39:38.597Z,47.87
2018-10-21T05:42:08.601Z,44.87
2018-10-21T05:44:38.526Z,45.73
2018-10-21T05:47:08.382Z,46.57
2018-10-21T05:49:38.129Z,45.57
2018-10-21T05:52:08.083Z,41.07
2018-10-21T05:54:44.166Z,40.43
2018-10-21T05:57:14.220Z,39.23
2018-10-21T05:59:44.051Z,36.03
2018-10-21T06:02:14.111Z,37.93
2018-10-21T06:04:44.095Z,36.87
2018-10-21T06:07:13.941Z,35.77
2018-10-21T06:09:43.756Z,39.30
2018-10-21T06:12:16.997Z,39.23
2018-10-21T06:14:48.685Z,39.60
2018-10-21T06:17:26.852Z,39.43
2018-10-21T06:19:59.859Z,36.77
2018-10-21T06:22:33.709Z,35.23
2018-10-21T06:25:06.225Z,34.40
2018-10-21T06:27:36.399Z,32.50
2018-10-21T06:30:07.361Z,30.37
2018-10-21T06:32:37.302Z,31.03
2018-10-21T06:35:07.972Z,28.57
2018-10-21T06:37:38.220Z,30.37
2018-10-21T06:40:09.994Z,29.80
2018-10-21T06:42:40.229Z,29.03
2018-10-21T06:45:12.463Z,27.53
2018-10-21T06:47:44.216Z,24.87
2018-10-21T06:50:21.620Z,26.57
2018-10-21T06:52:51.605Z,26.80
2018-10-21T06:55:21.684Z,27.07
2018-10-21T06:57:51.971Z,26.63
2018-10-21T07:00:21.941Z,25.77
2018-10-21T07:02:51.800Z,26.13
2018-10-21T07:05:32.294Z,26.30
2018-10-21T07:08:06.864Z,27.83
2018-10-21T07:10:39.416Z,27.00
2018-10-21T07:13:11.090Z,25.87
2018-10-21T07:15:43.767Z,24.90
2018-10-21T07:18:13.986Z,24.47
2018-10-21T07:20:43.941Z,25.97
2018-10-21T07:23:13.765Z,26.03
2018-10-21T07:25:43.669Z,24.60
2018-10-21T07:28:13.696Z,25.60
2018-10-21T07:30:44.437Z,24.63
2018-10-21T07:33:14.238Z,24.33
2018-10-21T07:35:44.095Z,23.70
2018-10-21T07:38:13.967Z,24.93
2018-10-21T07:40:43.856Z,24.33
2018-10-21T07:43:13.885Z,23.97
2018-10-21T07:45:43.824Z,24.97
2018-10-21T07:48:13.794Z,24.67
2018-10-21T07:50:43.606Z,24.60
2018-10-21T07:53:13.591Z,24.37
2018-10-21T07:55:43.574Z,25.50
2018-10-21T07:58:13.796Z,26.57
2018-10-21T08:00:43.585Z,26.97
2018-10-21T08:03:13.359Z,24.53
2018-10-21T08:05:53.973Z,24.07
2018-10-21T08:08:25.125Z,25.43
2018-10-21T08:10:54.987Z,23.50
2018-10-21T08:13:26.865Z,25.00
2018-10-21T08:15:56.958Z,24.70
2018-10-21T08:18:26.970Z,25.90
2018-10-21T08:20:56.830Z,24.07
2018-10-21T08:23:26.703Z,23.93
2018-10-21T08:25:56.603Z,25.50
2018-10-21T08:28:26.525Z,23.83
2018-10-21T08:30:56.355Z,22.50
2018-10-21T08:33:26.236Z,20.60
2018-10-21T08:35:56.127Z,24.03
2018-10-21T08:38:26.015Z,22.70
2018-10-21T08:40:55.948Z,23.57
2018-10-21T08:43:25.757Z,26.20
2018-10-21T08:45:55.660Z,24.33
2018-10-21T08:48:25.495Z,25.50
2018-10-21T08:50:55.279Z,24.70
2018-10-21T08:53:25.385Z,24.67
2018-10-21T08:55:55.216Z,24.67
2018-10-21T08:58:25.004Z,24.30
2018-10-21T09:00:55.035Z,19.03
2018-10-21T09:03:24.970Z,20.73
2018-10-21T09:05:54.956Z,21.07
2018-10-21T09:08:24.784Z,20.70
2018-10-21T09:10:54.763Z,20.90
2018-10-21T09:13:24.604Z,18.37
2018-10-21T09:15:54.392Z,16.53
2018-10-21T09:18:24.339Z,17.43
2018-10-21T09:20:54.176Z,17.23
2018-10-21T09:23:24.348Z,16.50
2018-10-21T09:25:54.169Z,19.13
2018-10-21T09:28:24.056Z,18.80
2018-10-21T09:30:53.936Z,17.90
2018-10-21T09:33:23.774Z,13.60
2018-10-21T09:35:53.627Z,20.73
2018-10-21T09:38:23.371Z,13.47
2018-10-21T09:40:53.273Z,12.63
2018-10-21T09:43:23.096Z,12.33
2018-10-21T09:45:52.905Z,12.13
2018-10-21T09:48:22.743Z,11.30
2018-10-21T09:50:52.625Z,11.93
2018-10-21T09:53:22.376Z,11.73
2018-10-21T09:55:52.187Z,11.70
2018-10-21T09:58:22.193Z,11.13
2018-10-21T10:00:57.057Z,10.37
2018-10-21T10:03:26.925Z,10.80
2018-10-21T10:05:56.836Z,10.40
2018-10-21T10:08:26.799Z,11.17
2018-10-21T10:10:56.872Z,11.10
2018-10-21T10:13:26.807Z,11.13
2018-10-21T10:15:56.892Z,10.80
2018-10-21T10:18:26.844Z,11.60
2018-10-21T10:20:56.848Z,11.43
2018-10-21T10:23:26.850Z,12.07
2018-10-21T10:25:56.632Z,11.00
2018-10-21T10:28:26.425Z,9.77
2018-10-21T10:30:56.887Z,11.13
2018-10-21T10:33:26.839Z,10.07
2018-10-21T10:35:56.809Z,10.13
2018-10-21T10:38:26.685Z,15.30
2018-10-21T10:40:56.729Z,10.33
2018-10-21T10:43:26.841Z,10.87
2018-10-21T10:45:57.280Z,10.00
2018-10-21T10:48:27.366Z,10.50
2018-10-21T10:54:32.800Z,9.50
2018-10-21T10:57:07.168Z,9.93
2018-10-21T10:59:43.783Z,9.50
2018-10-21T11:02:15.182Z,9.00
2018-10-21T11:04:46.262Z,9.60
2018-10-21T11:07:16.245Z,9.73
2018-10-21T11:09:46.584Z,9.17
2018-10-21T11:12:16.632Z,9.43
2018-10-21T11:14:46.536Z,9.27
2018-10-21T11:17:16.337Z,10.00
2018-10-21T11:19:46.201Z,10.47
2018-10-21T11:22:16.384Z,9.70
2018-10-21T11:24:48.488Z,8.63
2018-10-21T11:27:18.924Z,8.33
2018-10-21T11:29:49.565Z,7.87
2018-10-21T11:32:19.406Z,8.57
2018-10-21T11:34:49.609Z,7.73
2018-10-21T11:37:19.507Z,7.97
2018-10-21T11:39:49.251Z,8.37
2018-10-21T11:42:19.361Z,8.57
2018-10-21T11:44:49.289Z,8.17
2018-10-21T11:47:19.549Z,8.80
2018-10-21T11:49:49.514Z,8.27
2018-10-21T11:52:19.509Z,9.10
2018-10-21T11:54:49.357Z,8.67
2018-10-21T11:57:19.485Z,9.57
2018-10-21T11:59:49.733Z,8.67
2018-10-21T12:02:19.614Z,8.57
2018-10-21T12:04:49.447Z,9.13
2018-10-21T12:07:22.664Z,8.10
2018-10-21T12:09:53.136Z,8.27
2018-10-21T12:12:23.717Z,8.47
2018-10-21T12:14:53.834Z,8.47
2018-10-21T12:17:23.732Z,9.23
2018-10-21T12:19:54.009Z,7.80
2018-10-21T12:22:24.169Z,8.10
2018-10-21T12:24:53.932Z,8.93
2018-10-21T12:27:23.940Z,8.43
2018-10-21T12:29:54.005Z,8.00
2018-10-21T12:32:23.935Z,8.00
2018-10-21T12:34:53.754Z,8.33
2018-10-21T12:37:23.772Z,8.10
2018-10-21T12:39:53.600Z,8.23
2018-10-21T12:42:23.698Z,7.90
2018-10-21T12:44:54.353Z,7.20
2018-10-21T12:47:24.350Z,8.50
2018-10-21T12:49:54.196Z,8.00
2018-10-21T12:52:24.099Z,7.80
2018-10-21T12:54:53.902Z,8.93
2018-10-21T12:57:23.784Z,7.57
2018-10-21T12:59:53.770Z,8.10
2018-10-21T13:02:24.499Z,7.40
2018-10-21T13:04:54.404Z,6.93
2018-10-21T13:07:24.302Z,7.27
2018-10-21T13:09:54.329Z,7.73
2018-10-21T13:12:24.566Z,7.30
2018-10-21T13:14:54.596Z,7.77
2018-10-21T13:17:24.798Z,7.70
2018-10-21T13:19:54.811Z,7.40
2018-10-21T13:22:25.545Z,7.50
2018-10-21T13:28:04.979Z,8.00
2018-10-21T13:30:34.720Z,8.93
2018-10-21T13:33:07.797Z,8.57
2018-10-21T13:35:40.343Z,8.60
2018-10-21T13:38:16.706Z,8.37
2018-10-21T13:41:01.228Z,8.90
2018-10-21T13:46:33.797Z,8.50
2018-10-21T13:49:06.347Z,9.00
2018-10-21T13:51:38.783Z,9.43
2018-10-21T13:57:37.774Z,9.43
2018-10-21T14:00:32.258Z,15.87
2018-10-21T14:06:48.266Z,85.77
2018-10-21T14:09:40.395Z,36.13
2018-10-21T14:12:36.236Z,26.53
2018-10-21T14:15:37.676Z,26.70
2018-10-21T14:18:13.264Z,23.20
2018-10-21T14:20:43.191Z,17.27
2018-10-21T14:23:13.360Z,14.23
2018-10-21T14:25:43.212Z,12.10
2018-10-21T14:28:13.229Z,10.67
2018-10-21T14:30:44.106Z,13.60
2018-10-21T14:33:14.143Z,10.80
2018-10-21T14:35:43.879Z,12.20
2018-10-21T14:38:13.989Z,12.07
2018-10-21T14:40:43.916Z,12.63
2018-10-21T14:43:13.830Z,14.13
2018-10-21T14:45:43.800Z,14.50
2018-10-21T14:48:13.694Z,14.97
2018-10-21T14:50:43.585Z,11.10
2018-10-21T14:53:13.431Z,11.60
2018-10-21T14:55:43.416Z,11.50
2018-10-21T14:58:13.513Z,13.00
2018-10-21T15:00:43.768Z,12.83
2018-10-21T15:03:15.276Z,11.90
2018-10-21T15:05:45.396Z,11.10
2018-10-21T15:08:15.381Z,10.70
2018-10-21T15:10:45.332Z,10.70
2018-10-21T15:13:15.257Z,11.10
2018-10-21T15:15:45.143Z,11.23
2018-10-21T15:18:15.222Z,11.10
2018-10-21T15:20:45.670Z,11.00
2018-10-21T15:23:16.538Z,11.40
2018-10-21T15:25:46.706Z,10.83
2018-10-21T15:28:16.701Z,10.47
2018-10-21T15:30:46.674Z,10.97
2018-10-21T15:33:16.657Z,11.30
2018-10-21T15:35:46.675Z,10.97
2018-10-21T15:38:16.778Z,11.53
2018-10-21T15:40:46.717Z,12.53
2018-10-21T15:43:19.602Z,12.30
2018-10-21T15:45:50.689Z,12.50
2018-10-21T15:48:51.355Z,12.13
2018-10-21T15:51:38.545Z,11.87
2018-10-21T15:54:12.311Z,15.33
2018-10-21T15:57:02.117Z,15.43
2018-10-21T15:59:54.767Z,11.67
2018-10-21T16:02:47.349Z,12.67
2018-10-21T16:08:41.920Z,15.87
2018-10-21T16:11:22.290Z,14.97
2018-10-21T16:13:52.257Z,14.30
2018-10-21T16:16:22.114Z,13.30
2018-10-21T16:18:52.124Z,15.50
2018-10-21T16:21:22.214Z,14.03
2018-10-21T16:23:52.374Z,14.70
2018-10-21T16:26:22.950Z,14.40
2018-10-21T16:28:55.021Z,14.70
2018-10-21T16:31:25.399Z,14.57
2018-10-21T16:33:55.329Z,15.93
2018-10-21T16:36:25.995Z,16.10
2018-10-21T16:38:56.142Z,14.03
2018-10-21T16:41:30.109Z,9.93
2018-10-21T16:43:59.982Z,6.27
2018-10-21T16:46:29.933Z,6.67
2018-10-21T16:48:59.780Z,6.67
2018-10-21T16:51:30.706Z,3.50
2018-10-21T16:54:01.129Z,2.53
2018-10-21T16:56:31.201Z,1.43
2018-10-21T16:59:01.183Z,0.90
2018-10-21T17:01:30.996Z,1.30
2018-10-21T17:04:00.988Z,1.40
2018-10-21T17:06:30.964Z,0.90
2018-10-21T17:09:00.824Z,0.70
2018-10-21T17:11:32.055Z,1.07
2018-10-21T17:14:02.599Z,1.00
2018-10-21T17:16:33.458Z,0.87
2018-10-21T17:19:03.911Z,1.93
2018-10-21T17:21:33.840Z,4.30
2018-10-21T17:24:04.390Z,1.30
2018-10-21T17:26:34.432Z,1.70
2018-10-21T17:29:04.679Z,2.07
2018-10-21T17:31:34.670Z,3.13
2018-10-21T17:34:04.696Z,1.60
2018-10-21T17:36:34.899Z,1.30
2018-10-21T17:39:07.802Z,0.90
2018-10-21T17:41:43.006Z,1.10
2018-10-21T17:44:14.524Z,1.20
2018-10-21T17:46:45.061Z,1.13
2018-10-21T17:49:17.312Z,1.20
2018-10-21T17:51:48.499Z,1.50
2018-10-21T17:54:18.766Z,2.30
2018-10-21T17:56:53.655Z,1.50
2018-10-21T17:59:23.917Z,1.43
2018-10-21T18:01:54.004Z,2.53
2018-10-21T18:04:25.715Z,1.40
2018-10-21T18:06:57.736Z,1.50
2018-10-21T18:09:37.926Z,1.00
2018-10-21T18:12:09.905Z,0.83
2018-10-21T18:14:42.146Z,1.20
2018-10-21T18:17:44.782Z,1.10
2018-10-21T18:23:16.155Z,2.10
2018-10-21T18:25:50.759Z,1.60
2018-10-21T18:28:25.358Z,1.50
2018-10-21T18:30:55.651Z,2.17
2018-10-21T18:33:26.983Z,2.17
2018-10-21T18:35:58.713Z,1.07
2018-10-21T18:38:29.510Z,1.80
2018-10-21T18:41:00.012Z,2.20
2018-10-21T18:43:30.217Z,1.87
2018-10-21T18:46:00.514Z,1.90
2018-10-21T18:48:30.482Z,2.10
2018-10-21T18:51:00.506Z,2.43
2018-10-21T18:53:30.525Z,1.67
2018-10-21T18:56:02.903Z,2.60
2018-10-21T18:58:33.212Z,2.90
2018-10-21T19:01:03.219Z,2.20
2018-10-21T19:03:33.373Z,1.70
2018-10-21T19:06:03.851Z,2.00
2018-10-21T19:08:33.876Z,2.23
2018-10-21T19:11:04.044Z,2.00
2018-10-21T19:13:53.796Z,2.53
2018-10-21T19:16:25.986Z,1.90
2018-10-21T19:18:55.987Z,1.70
2018-10-21T19:21:25.905Z,1.70
2018-10-21T19:23:56.109Z,2.17
2018-10-21T19:26:26.045Z,2.57
2018-10-21T19:28:55.929Z,1.70
2018-10-21T19:31:25.821Z,1.90
2018-10-21T19:33:56.179Z,1.63
2018-10-21T19:36:26.852Z,2.07
2018-10-21T19:38:56.921Z,3.30
2018-10-21T19:41:26.808Z,3.90
2018-10-21T19:43:56.804Z,2.37
2018-10-21T19:46:26.845Z,2.33
2018-10-21T19:48:56.827Z,2.60
2018-10-21T19:51:27.424Z,1.80
2018-10-21T19:53:59.006Z,2.07
2018-10-21T19:56:31.730Z,1.77
2018-10-21T19:59:03.861Z,4.73
2018-10-21T20:01:33.762Z,2.50
2018-10-21T20:04:04.140Z,9.43
2018-10-21T20:06:35.148Z,6.97
2018-10-21T20:09:07.873Z,6.10
2018-10-21T20:11:38.276Z,5.20
2018-10-21T20:14:08.863Z,7.17
2018-10-21T20:16:39.119Z,5.73
2018-10-21T20:19:10.889Z,6.87
2018-10-21T20:21:40.959Z,3.50
2018-10-21T20:24:11.165Z,4.00
2018-10-21T20:26:40.981Z,2.47
2018-10-21T20:29:10.984Z,1.70
2018-10-21T20:31:40.754Z,1.80
2018-10-21T20:34:12.778Z,1.90
2018-10-21T20:36:43.933Z,2.00
2018-10-21T20:39:14.096Z,2.30
2018-10-21T20:41:45.132Z,2.83
2018-10-21T20:44:15.110Z,2.20
2018-10-21T20:46:45.026Z,2.30
2018-10-21T20:49:15.167Z,2.07
2018-10-21T20:51:45.604Z,2.03
2018-10-21T20:54:16.785Z,2.50
2018-10-21T20:56:46.814Z,2.13
2018-10-21T20:59:16.758Z,2.13
2018-10-21T21:01:46.634Z,2.07
2018-10-21T21:04:16.965Z,1.90
2018-10-21T21:06:47.092Z,1.70
2018-10-21T21:09:17.027Z,2.00
2018-10-21T21:11:47.318Z,1.80
2018-10-21T21:14:17.308Z,2.57
2018-10-21T21:16:47.254Z,2.20
2018-10-21T21:19:17.725Z,1.83
2018-10-21T21:21:47.734Z,1.70
2018-10-21T21:24:17.734Z,2.10
2018-10-21T21:26:48.102Z,1.90
2018-10-21T21:29:18.082Z,1.90
2018-10-21T21:31:47.908Z,1.70
2018-10-21T21:34:18.026Z,1.70
2018-10-21T21:36:47.819Z,1.60
2018-10-21T21:39:17.655Z,2.07
2018-10-21T21:41:47.949Z,1.87
2018-10-21T21:44:18.225Z,1.93
2018-10-21T21:46:49.243Z,1.53
2018-10-21T21:49:19.399Z,1.60
2018-10-21T21:51:49.369Z,1.50
2018-10-21T21:54:19.394Z,1.70
2018-10-21T21:56:49.358Z,2.23
2018-10-21T21:59:19.302Z,3.80
2018-10-21T22:01:49.280Z,2.60
2018-10-21T22:04:19.627Z,3.00
2018-10-21T22:06:50.195Z,2.60
2018-10-21T22:09:20.410Z,2.37
2018-10-21T22:11:50.300Z,2.20
2018-10-21T22:14:20.574Z,2.60
2018-10-21T22:16:50.688Z,3.37
2018-10-21T22:19:21.014Z,3.10
2018-10-21T22:21:51.966Z,1.60
2018-10-21T22:24:22.738Z,1.90
2018-10-21T22:26:52.696Z,1.83
2018-10-21T22:29:22.766Z,1.47
2018-10-21T22:31:52.713Z,1.40
2018-10-21T22:34:22.566Z,1.23
2018-10-21T22:36:52.659Z,1.60
2018-10-21T22:39:22.624Z,1.40
2018-10-21T22:41:52.555Z,1.80
2018-10-21T22:44:22.473Z,1.20
2018-10-21T22:46:52.958Z,1.90
2018-10-21T22:49:22.971Z,1.90
2018-10-21T22:51:52.937Z,1.77
2018-10-21T22:54:23.115Z,1.30
2018-10-21T22:56:53.083Z,1.60
2018-10-21T22:59:23.427Z,1.67
2018-10-21T23:01:53.488Z,1.97
2018-10-21T23:04:24.316Z,1.93
2018-10-21T23:06:54.484Z,2.93
2018-10-21T23:09:24.397Z,3.10
2018-10-21T23:11:54.402Z,6.13
2018-10-21T23:14:24.323Z,1.70
2018-10-21T23:16:54.292Z,1.70
2018-10-21T23:19:46.036Z,1.70
2018-10-21T23:22:16.201Z,1.60
2018-10-21T23:24:46.057Z,1.60
2018-10-21T23:27:15.859Z,1.50
2018-10-21T23:29:45.835Z,1.80
2018-10-21T23:32:15.758Z,1.70
2018-10-21T23:34:45.783Z,1.53
2018-10-21T23:37:15.759Z,1.47
2018-10-21T23:39:45.792Z,1.40
2018-10-21T23:42:15.944Z,1.30
2018-10-21T23:44:46.147Z,1.53
2018-10-21T23:47:16.226Z,1.50
2018-10-21T23:49:46.168Z,1.30
2018-10-21T23:52:16.416Z,1.30
2018-10-21T23:54:46.813Z,1.40
2018-10-21T23:57:16.814Z,1.30
2018-10-21T23:59:46.781Z,1.60
